sensor_id;sensor_type;location;lat;lon;timestamp;pressure;altitude;pressure_sealevel;temperature;humidity
73205;BME280;61413;-27.702;153.216;2022-07-24T00:00:55;102023.35;;;16.24;34.79
73205;BME280;61413;-27.702;153.216;2022-07-24T00:03:22;102018.61;;;16.03;34.57
73205;BME280;61413;-27.702;153.216;2022-07-24T00:05:49;102019.41;;;16.36;34.24
73205;BME280;61413;-27.702;153.216;2022-07-24T00:08:16;102019.38;;;16.74;34.08
73205;BME280;61413;-27.702;153.216;2022-07-24T00:10:43;102014.82;;;16.82;33.77
73205;BME280;61413;-27.702;153.216;2022-07-24T00:13:10;102016.55;;;16.78;33.68
73205;BME280;61413;-27.702;153.216;2022-07-24T00:15:36;102009.55;;;17.16;33.61
73205;BME280;61413;-27.702;153.216;2022-07-24T00:18:03;102003.61;;;17.12;33.11
73205;BME280;61413;-27.702;153.216;2022-07-24T00:20:30;102004.05;;;17.50;32.88
73205;BME280;61413;-27.702;153.216;2022-07-24T00:22:57;102002.17;;;17.63;32.27
73205;BME280;61413;-27.702;153.216;2022-07-24T00:25:24;102002.97;;;17.63;31.81
73205;BME280;61413;-27.702;153.216;2022-07-24T00:27:51;102004.64;;;17.67;31.85
73205;BME280;61413;-27.702;153.216;2022-07-24T00:30:17;101998.73;;;17.78;31.68
73205;BME280;61413;-27.702;153.216;2022-07-24T00:32:44;101995.70;;;18.06;31.26
73205;BME280;61413;-27.702;153.216;2022-07-24T00:35:11;101993.77;;;18.33;31.06
73205;BME280;61413;-27.702;153.216;2022-07-24T00:37:38;101994.06;;;18.46;30.58
73205;BME280;61413;-27.702;153.216;2022-07-24T00:40:05;101989.22;;;18.81;30.36
73205;BME280;61413;-27.702;153.216;2022-07-24T00:42:32;101982.36;;;18.89;30.01
73205;BME280;61413;-27.702;153.216;2022-07-24T00:46:05;101980.76;;;19.10;29.49
73205;BME280;61413;-27.702;153.216;2022-07-24T00:48:32;101979.98;;;19.18;29.48
73205;BME280;61413;-27.702;153.216;2022-07-24T00:50:59;101977.20;;;19.53;29.30
73205;BME280;61413;-27.702;153.216;2022-07-24T00:53:31;101982.76;;;19.74;28.55
73205;BME280;61413;-27.702;153.216;2022-07-24T00:55:53;101980.35;;;19.91;27.77
73205;BME280;61413;-27.702;153.216;2022-07-24T00:58:22;101974.70;;;19.66;27.50
73205;BME280;61413;-27.702;153.216;2022-07-24T01:00:49;101962.57;;;20.35;27.30
73205;BME280;61413;-27.702;153.216;2022-07-24T01:03:16;101959.88;;;19.91;27.42
73205;BME280;61413;-27.702;153.216;2022-07-24T01:05:43;101961.36;;;19.83;27.12
73205;BME280;61413;-27.702;153.216;2022-07-24T01:08:10;101954.28;;;19.98;26.36
73205;BME280;61413;-27.702;153.216;2022-07-24T01:10:37;101953.72;;;19.86;25.97
73205;BME280;61413;-27.702;153.216;2022-07-24T01:13:04;101943.50;;;19.96;25.78
73205;BME280;61413;-27.702;153.216;2022-07-24T01:15:31;101943.50;;;20.01;25.60
73205;BME280;61413;-27.702;153.216;2022-07-24T01:17:58;101938.84;;;20.10;25.41
73205;BME280;61413;-27.702;153.216;2022-07-24T01:20:24;101930.77;;;20.12;25.39
73205;BME280;61413;-27.702;153.216;2022-07-24T01:22:51;101933.89;;;20.18;25.29
73205;BME280;61413;-27.702;153.216;2022-07-24T01:25:18;101935.89;;;20.13;25.40
73205;BME280;61413;-27.702;153.216;2022-07-24T01:27:46;101940.70;;;20.24;25.08
73205;BME280;61413;-27.702;153.216;2022-07-24T01:30:13;101937.23;;;20.39;25.23
73205;BME280;61413;-27.702;153.216;2022-07-24T01:32:40;101936.12;;;20.33;25.10
73205;BME280;61413;-27.702;153.216;2022-07-24T01:35:50;101925.58;;;20.34;25.25
73205;BME280;61413;-27.702;153.216;2022-07-24T01:38:17;101929.07;;;20.31;25.43
73205;BME280;61413;-27.702;153.216;2022-07-24T01:40:44;101919.17;;;20.56;25.28
73205;BME280;61413;-27.702;153.216;2022-07-24T01:43:10;101916.29;;;20.47;25.22
73205;BME280;61413;-27.702;153.216;2022-07-24T01:45:37;101914.23;;;20.50;25.64
73205;BME280;61413;-27.702;153.216;2022-07-24T01:48:04;101906.09;;;20.77;25.91
73205;BME280;61413;-27.702;153.216;2022-07-24T01:52:17;101896.77;;;20.20;26.17
73205;BME280;61413;-27.702;153.216;2022-07-24T01:54:44;101889.18;;;20.17;26.04
73205;BME280;61413;-27.702;153.216;2022-07-24T01:57:12;101886.67;;;20.22;25.86
73205;BME280;61413;-27.702;153.216;2022-07-24T01:59:39;101883.96;;;20.17;25.69
73205;BME280;61413;-27.702;153.216;2022-07-24T02:02:06;101880.15;;;20.57;25.44
73205;BME280;61413;-27.702;153.216;2022-07-24T02:04:33;101874.78;;;20.68;25.34
73205;BME280;61413;-27.702;153.216;2022-07-24T02:07:00;101876.17;;;20.80;24.91
73205;BME280;61413;-27.702;153.216;2022-07-24T02:09:27;101868.21;;;20.88;24.86
73205;BME280;61413;-27.702;153.216;2022-07-24T02:11:54;101873.52;;;20.73;24.88
73205;BME280;61413;-27.702;153.216;2022-07-24T02:14:21;101860.12;;;20.83;24.66
73205;BME280;61413;-27.702;153.216;2022-07-24T02:16:48;101853.88;;;20.59;24.65
73205;BME280;61413;-27.702;153.216;2022-07-24T02:19:16;101845.05;;;20.72;24.47
73205;BME280;61413;-27.702;153.216;2022-07-24T02:21:43;101836.14;;;20.81;24.46
73205;BME280;61413;-27.702;153.216;2022-07-24T02:24:10;101833.35;;;20.78;24.57
73205;BME280;61413;-27.702;153.216;2022-07-24T02:26:37;101833.78;;;20.61;24.38
73205;BME280;61413;-27.702;153.216;2022-07-24T02:29:09;101828.92;;;20.66;24.24
73205;BME280;61413;-27.702;153.216;2022-07-24T02:31:31;101822.88;;;20.68;24.29
73205;BME280;61413;-27.702;153.216;2022-07-24T02:37:00;101823.03;;;20.61;24.22
73205;BME280;61413;-27.702;153.216;2022-07-24T02:39:24;101819.19;;;20.56;24.35
73205;BME280;61413;-27.702;153.216;2022-07-24T02:41:51;101820.07;;;20.52;24.37
73205;BME280;61413;-27.702;153.216;2022-07-24T02:44:19;101812.53;;;20.76;24.32
73205;BME280;61413;-27.702;153.216;2022-07-24T02:46:47;101806.99;;;20.40;24.31
73205;BME280;61413;-27.702;153.216;2022-07-24T02:49:19;101807.86;;;20.54;24.43
73205;BME280;61413;-27.702;153.216;2022-07-24T02:51:42;101799.63;;;20.47;24.33
73205;BME280;61413;-27.702;153.216;2022-07-24T02:54:09;101797.39;;;20.52;24.32
73205;BME280;61413;-27.702;153.216;2022-07-24T02:56:36;101793.01;;;20.74;24.32
73205;BME280;61413;-27.702;153.216;2022-07-24T02:59:04;101802.99;;;20.76;24.51
73205;BME280;61413;-27.702;153.216;2022-07-24T03:01:31;101794.43;;;20.75;24.25
73205;BME280;61413;-27.702;153.216;2022-07-24T03:05:45;101796.82;;;20.46;24.52
73205;BME280;61413;-27.702;153.216;2022-07-24T03:08:14;101797.29;;;20.36;24.48
73205;BME280;61413;-27.702;153.216;2022-07-24T03:10:37;101797.94;;;20.74;24.19
73205;BME280;61413;-27.702;153.216;2022-07-24T03:13:05;101793.58;;;20.80;24.03
73205;BME280;61413;-27.702;153.216;2022-07-24T03:15:32;101793.36;;;20.51;24.08
73205;BME280;61413;-27.702;153.216;2022-07-24T03:18:05;101784.98;;;20.72;24.03
73205;BME280;61413;-27.702;153.216;2022-07-24T03:20:29;101780.88;;;20.70;24.08
73205;BME280;61413;-27.702;153.216;2022-07-24T03:22:58;101778.51;;;20.57;24.24
73205;BME280;61413;-27.702;153.216;2022-07-24T03:25:28;101782.45;;;20.43;24.09
73205;BME280;61413;-27.702;153.216;2022-07-24T03:27:52;101783.96;;;20.56;24.05
73205;BME280;61413;-27.702;153.216;2022-07-24T03:30:20;101785.61;;;20.45;24.27
73205;BME280;61413;-27.702;153.216;2022-07-24T03:32:48;101780.82;;;20.58;23.91
73205;BME280;61413;-27.702;153.216;2022-07-24T03:35:20;101781.97;;;20.43;23.78
73205;BME280;61413;-27.702;153.216;2022-07-24T03:37:44;101777.28;;;20.50;23.83
73205;BME280;61413;-27.702;153.216;2022-07-24T03:40:17;101773.96;;;20.84;23.69
73205;BME280;61413;-27.702;153.216;2022-07-24T03:42:41;101772.01;;;20.94;23.66
73205;BME280;61413;-27.702;153.216;2022-07-24T03:45:06;101768.84;;;20.78;23.75
73205;BME280;61413;-27.702;153.216;2022-07-24T03:47:30;101769.57;;;20.77;23.64
73205;BME280;61413;-27.702;153.216;2022-07-24T03:49:57;101761.44;;;21.00;23.64
73205;BME280;61413;-27.702;153.216;2022-07-24T03:52:27;101762.85;;;21.21;23.82
73205;BME280;61413;-27.702;153.216;2022-07-24T03:54:50;101761.00;;;21.10;23.78
73205;BME280;61413;-27.702;153.216;2022-07-24T03:57:18;101762.05;;;20.90;23.66
73205;BME280;61413;-27.702;153.216;2022-07-24T03:59:45;101753.19;;;20.99;23.77
73205;BME280;61413;-27.702;153.216;2022-07-24T04:02:13;101752.88;;;21.01;23.77
73205;BME280;61413;-27.702;153.216;2022-07-24T04:04:41;101752.94;;;21.22;23.57
73205;BME280;61413;-27.702;153.216;2022-07-24T04:07:08;101745.50;;;20.93;23.69
73205;BME280;61413;-27.702;153.216;2022-07-24T04:09:35;101746.89;;;21.19;23.62
73205;BME280;61413;-27.702;153.216;2022-07-24T04:12:07;101747.01;;;20.81;23.69
73205;BME280;61413;-27.702;153.216;2022-07-24T04:14:31;101746.36;;;20.96;23.69
73205;BME280;61413;-27.702;153.216;2022-07-24T04:16:58;101741.84;;;20.89;23.76
73205;BME280;61413;-27.702;153.216;2022-07-24T04:19:25;101746.69;;;21.13;24.04
73205;BME280;61413;-27.702;153.216;2022-07-24T04:21:56;101750.37;;;20.95;24.15
73205;BME280;61413;-27.702;153.216;2022-07-24T04:24:19;101749.35;;;20.52;24.32
73205;BME280;61413;-27.702;153.216;2022-07-24T04:26:46;101747.55;;;20.15;24.53
73205;BME280;61413;-27.702;153.216;2022-07-24T04:29:18;101745.47;;;20.05;24.83
73205;BME280;61413;-27.702;153.216;2022-07-24T04:31:40;101743.90;;;20.09;24.85
73205;BME280;61413;-27.702;153.216;2022-07-24T04:34:08;101740.48;;;19.80;24.91
73205;BME280;61413;-27.702;153.216;2022-07-24T04:36:35;101742.21;;;20.06;25.28
73205;BME280;61413;-27.702;153.216;2022-07-24T04:39:02;101739.93;;;19.85;25.56
73205;BME280;61413;-27.702;153.216;2022-07-24T04:41:30;101738.81;;;19.74;25.87
73205;BME280;61413;-27.702;153.216;2022-07-24T04:46:44;101735.85;;;19.98;25.37
73205;BME280;61413;-27.702;153.216;2022-07-24T04:49:12;101738.93;;;20.38;25.16
73205;BME280;61413;-27.702;153.216;2022-07-24T04:51:40;101740.08;;;19.87;25.47
73205;BME280;61413;-27.702;153.216;2022-07-24T04:54:07;101743.26;;;19.76;25.54
73205;BME280;61413;-27.702;153.216;2022-07-24T04:56:34;101748.73;;;20.07;25.34
73205;BME280;61413;-27.702;153.216;2022-07-24T04:59:08;101747.54;;;19.75;25.59
73205;BME280;61413;-27.702;153.216;2022-07-24T05:01:27;101746.92;;;19.38;25.93
73205;BME280;61413;-27.702;153.216;2022-07-24T05:03:55;101748.34;;;19.42;25.98
73205;BME280;61413;-27.702;153.216;2022-07-24T05:06:23;101748.54;;;19.26;26.02
73205;BME280;61413;-27.702;153.216;2022-07-24T05:08:50;101749.54;;;19.63;26.11
73205;BME280;61413;-27.702;153.216;2022-07-24T05:11:18;101753.54;;;19.62;26.38
73205;BME280;61413;-27.702;153.216;2022-07-24T05:13:45;101754.31;;;19.94;26.51
73205;BME280;61413;-27.702;153.216;2022-07-24T05:16:14;101757.74;;;19.61;26.58
73205;BME280;61413;-27.702;153.216;2022-07-24T05:18:46;101753.00;;;19.87;26.56
73205;BME280;61413;-27.702;153.216;2022-07-24T05:21:09;101750.88;;;20.02;26.37
73205;BME280;61413;-27.702;153.216;2022-07-24T05:25:37;101748.40;;;20.11;26.23
73205;BME280;61413;-27.702;153.216;2022-07-24T05:28:06;101750.41;;;20.14;25.97
73205;BME280;61413;-27.702;153.216;2022-07-24T05:30:33;101752.35;;;19.94;26.02
73205;BME280;61413;-27.702;153.216;2022-07-24T05:33:05;101748.78;;;20.12;26.02
73205;BME280;61413;-27.702;153.216;2022-07-24T05:35:28;101744.44;;;19.70;25.99
73205;BME280;61413;-27.702;153.216;2022-07-24T05:37:56;101747.78;;;19.53;26.19
73205;BME280;61413;-27.702;153.216;2022-07-24T05:40:25;101749.41;;;19.69;26.11
73205;BME280;61413;-27.702;153.216;2022-07-24T05:42:49;101748.86;;;19.76;26.03
73205;BME280;61413;-27.702;153.216;2022-07-24T05:45:21;101747.06;;;19.59;26.15
73205;BME280;61413;-27.702;153.216;2022-07-24T05:47:46;101747.36;;;19.83;26.21
73205;BME280;61413;-27.702;153.216;2022-07-24T05:52:36;101741.72;;;19.85;26.55
73205;BME280;61413;-27.702;153.216;2022-07-24T05:55:02;101743.69;;;19.83;26.46
73205;BME280;61413;-27.702;153.216;2022-07-24T05:57:26;101744.05;;;19.79;26.35
73205;BME280;61413;-27.702;153.216;2022-07-24T05:59:52;101745.87;;;19.55;26.33
73205;BME280;61413;-27.702;153.216;2022-07-24T06:02:25;101747.20;;;19.70;26.24
73205;BME280;61413;-27.702;153.216;2022-07-24T06:04:47;101751.74;;;19.48;26.19
73205;BME280;61413;-27.702;153.216;2022-07-24T06:08:13;101750.25;;;19.47;25.97
73205;BME280;61413;-27.702;153.216;2022-07-24T06:12:37;101762.63;;;19.40;26.04
73205;BME280;61413;-27.702;153.216;2022-07-24T06:15:05;101766.72;;;19.35;26.23
73205;BME280;61413;-27.702;153.216;2022-07-24T06:17:32;101762.10;;;19.00;26.46
73205;BME280;61413;-27.702;153.216;2022-07-24T06:19:58;101772.94;;;18.89;26.71
73205;BME280;61413;-27.702;153.216;2022-07-24T06:22:26;101773.03;;;18.88;26.84
73205;BME280;61413;-27.702;153.216;2022-07-24T06:27:29;101777.83;;;18.38;27.38
73205;BME280;61413;-27.702;153.216;2022-07-24T06:29:56;101777.26;;;18.71;27.36
73205;BME280;61413;-27.702;153.216;2022-07-24T06:32:23;101778.63;;;18.60;27.37
73205;BME280;61413;-27.702;153.216;2022-07-24T06:35:56;101781.59;;;18.37;27.47
73205;BME280;61413;-27.702;153.216;2022-07-24T06:38:23;101783.66;;;18.74;27.40
73205;BME280;61413;-27.702;153.216;2022-07-24T06:40:50;101786.29;;;18.74;27.21
73205;BME280;61413;-27.702;153.216;2022-07-24T06:43:16;101788.62;;;18.80;27.03
73205;BME280;61413;-27.702;153.216;2022-07-24T06:45:44;101787.83;;;18.73;27.04
73205;BME280;61413;-27.702;153.216;2022-07-24T06:48:10;101786.84;;;18.72;26.96
73205;BME280;61413;-27.702;153.216;2022-07-24T06:50:37;101790.19;;;18.64;27.02
73205;BME280;61413;-27.702;153.216;2022-07-24T06:53:03;101790.08;;;18.51;26.94
73205;BME280;61413;-27.702;153.216;2022-07-24T06:57:23;101790.47;;;18.30;27.07
73205;BME280;61413;-27.702;153.216;2022-07-24T06:59:49;101792.99;;;18.31;27.05
73205;BME280;61413;-27.702;153.216;2022-07-24T07:02:16;101787.80;;;18.28;27.27
73205;BME280;61413;-27.702;153.216;2022-07-24T07:04:43;101787.11;;;18.14;27.42
73205;BME280;61413;-27.702;153.216;2022-07-24T07:07:09;101789.63;;;17.97;27.54
73205;BME280;61413;-27.702;153.216;2022-07-24T07:09:36;101796.21;;;18.10;27.65
73205;BME280;61413;-27.702;153.216;2022-07-24T07:12:03;101798.74;;;17.88;27.75
73205;BME280;61413;-27.702;153.216;2022-07-24T07:14:30;101801.11;;;17.91;27.95
73205;BME280;61413;-27.702;153.216;2022-07-24T07:16:57;101798.53;;;17.86;28.30
73205;BME280;61413;-27.702;153.216;2022-07-24T07:19:24;101802.47;;;17.62;28.37
73205;BME280;61413;-27.702;153.216;2022-07-24T07:21:50;101803.31;;;17.50;28.28
73205;BME280;61413;-27.702;153.216;2022-07-24T07:24:16;101803.47;;;17.59;28.29
73205;BME280;61413;-27.702;153.216;2022-07-24T07:26:43;101804.54;;;17.53;28.42
73205;BME280;61413;-27.702;153.216;2022-07-24T07:29:11;101805.82;;;17.20;28.68
73205;BME280;61413;-27.702;153.216;2022-07-24T07:31:38;101809.36;;;17.20;29.18
73205;BME280;61413;-27.702;153.216;2022-07-24T07:34:04;101812.66;;;16.98;29.56
73205;BME280;61413;-27.702;153.216;2022-07-24T07:37:55;101815.19;;;16.90;29.88
73205;BME280;61413;-27.702;153.216;2022-07-24T07:40:20;101819.09;;;16.96;29.93
73205;BME280;61413;-27.702;153.216;2022-07-24T07:42:47;101822.61;;;16.71;30.05
73205;BME280;61413;-27.702;153.216;2022-07-24T07:46:19;101828.32;;;17.02;30.30
73205;BME280;61413;-27.702;153.216;2022-07-24T07:48:51;101828.42;;;17.12;30.40
73205;BME280;61413;-27.702;153.216;2022-07-24T07:51:14;101832.39;;;16.53;30.50
73205;BME280;61413;-27.702;153.216;2022-07-24T07:53:45;101836.62;;;16.67;30.56
73205;BME280;61413;-27.702;153.216;2022-07-24T07:56:08;101840.50;;;17.11;30.62
73205;BME280;61413;-27.702;153.216;2022-07-24T07:58:35;101844.52;;;16.53;30.70
73205;BME280;61413;-27.702;153.216;2022-07-24T08:01:01;101850.21;;;16.54;30.80
73205;BME280;61413;-27.702;153.216;2022-07-24T08:03:28;101851.43;;;16.87;30.83
73205;BME280;61413;-27.702;153.216;2022-07-24T08:05:55;101858.46;;;16.93;30.89
73205;BME280;61413;-27.702;153.216;2022-07-24T08:08:21;101861.86;;;16.75;30.95
73205;BME280;61413;-27.702;153.216;2022-07-24T08:10:48;101865.67;;;16.84;31.06
73205;BME280;61413;-27.702;153.216;2022-07-24T08:13:14;101868.19;;;16.71;31.01
73205;BME280;61413;-27.702;153.216;2022-07-24T08:18:00;101872.16;;;16.70;31.30
73205;BME280;61413;-27.702;153.216;2022-07-24T08:20:27;101874.67;;;16.62;31.35
73205;BME280;61413;-27.702;153.216;2022-07-24T08:22:55;101877.26;;;16.60;31.37
73205;BME280;61413;-27.702;153.216;2022-07-24T08:25:21;101882.42;;;16.49;31.43
73205;BME280;61413;-27.702;153.216;2022-07-24T08:27:47;101891.31;;;16.48;31.45
73205;BME280;61413;-27.702;153.216;2022-07-24T08:30:14;101892.19;;;16.30;31.47
73205;BME280;61413;-27.702;153.216;2022-07-24T08:32:40;101897.90;;;16.60;31.46
73205;BME280;61413;-27.702;153.216;2022-07-24T08:35:07;101904.25;;;16.27;31.55
73205;BME280;61413;-27.702;153.216;2022-07-24T08:37:37;101904.97;;;16.51;31.74
73205;BME280;61413;-27.702;153.216;2022-07-24T08:40:00;101916.11;;;16.30;31.93
73205;BME280;61413;-27.702;153.216;2022-07-24T08:42:26;101918.06;;;16.25;31.97
73205;BME280;61413;-27.702;153.216;2022-07-24T08:44:53;101923.31;;;16.37;32.10
73205;BME280;61413;-27.702;153.216;2022-07-24T08:47:20;101921.49;;;16.33;32.27
73205;BME280;61413;-27.702;153.216;2022-07-24T08:49:48;101925.45;;;15.96;32.24
73205;BME280;61413;-27.702;153.216;2022-07-24T08:52:15;101925.02;;;15.77;32.30
73205;BME280;61413;-27.702;153.216;2022-07-24T08:54:41;101927.21;;;15.93;32.33
73205;BME280;61413;-27.702;153.216;2022-07-24T08:57:08;101928.59;;;15.95;32.33
73205;BME280;61413;-27.702;153.216;2022-07-24T08:59:35;101926.98;;;15.89;32.37
73205;BME280;61413;-27.702;153.216;2022-07-24T09:02:02;101930.48;;;15.95;32.44
73205;BME280;61413;-27.702;153.216;2022-07-24T09:05:58;101935.46;;;15.98;32.80
73205;BME280;61413;-27.702;153.216;2022-07-24T09:08:11;101933.40;;;16.06;32.86
73205;BME280;61413;-27.702;153.216;2022-07-24T09:10:35;101938.40;;;15.75;32.93
73205;BME280;61413;-27.702;153.216;2022-07-24T09:13:13;101937.70;;;15.59;33.01
73205;BME280;61413;-27.702;153.216;2022-07-24T09:15:28;101940.54;;;15.83;33.10
73205;BME280;61413;-27.702;153.216;2022-07-24T09:17:57;101945.58;;;15.82;33.01
73205;BME280;61413;-27.702;153.216;2022-07-24T09:20:21;101947.11;;;15.59;33.06
73205;BME280;61413;-27.702;153.216;2022-07-24T09:24:40;101948.62;;;15.42;33.39
73205;BME280;61413;-27.702;153.216;2022-07-24T09:27:15;101956.33;;;15.52;33.36
73205;BME280;61413;-27.702;153.216;2022-07-24T09:29:34;101956.89;;;15.46;33.31
73205;BME280;61413;-27.702;153.216;2022-07-24T09:32:01;101956.60;;;15.42;33.14
73205;BME280;61413;-27.702;153.216;2022-07-24T09:34:31;101961.97;;;15.61;33.13
73205;BME280;61413;-27.702;153.216;2022-07-24T09:37:00;101959.48;;;15.26;33.12
73205;BME280;61413;-27.702;153.216;2022-07-24T09:39:23;101960.77;;;15.54;33.04
73205;BME280;61413;-27.702;153.216;2022-07-24T09:41:53;101962.31;;;15.28;32.97
73205;BME280;61413;-27.702;153.216;2022-07-24T09:44:17;101964.56;;;15.48;32.93
73205;BME280;61413;-27.702;153.216;2022-07-24T09:48:34;101965.42;;;15.61;33.05
73205;BME280;61413;-27.702;153.216;2022-07-24T09:51:03;101965.98;;;15.51;33.01
73205;BME280;61413;-27.702;153.216;2022-07-24T09:53:30;101966.17;;;15.46;33.02
73205;BME280;61413;-27.702;153.216;2022-07-24T09:56:03;101964.65;;;15.33;33.03
73205;BME280;61413;-27.702;153.216;2022-07-24T09:58:19;101963.93;;;15.18;33.04
73205;BME280;61413;-27.702;153.216;2022-07-24T10:00:46;101967.17;;;15.40;33.03
73205;BME280;61413;-27.702;153.216;2022-07-24T10:03:16;101963.15;;;15.40;33.02
73205;BME280;61413;-27.702;153.216;2022-07-24T10:05:43;101966.76;;;15.14;33.05
73205;BME280;61413;-27.702;153.216;2022-07-24T10:09:28;101972.05;;;15.27;33.17
73205;BME280;61413;-27.702;153.216;2022-07-24T10:11:57;101976.12;;;14.91;33.24
73205;BME280;61413;-27.702;153.216;2022-07-24T10:14:23;101976.17;;;15.27;33.21
73205;BME280;61413;-27.702;153.216;2022-07-24T10:17:04;101977.71;;;14.93;33.22
73205;BME280;61413;-27.702;153.216;2022-07-24T10:19:23;101976.09;;;15.19;33.29
73205;BME280;61413;-27.702;153.216;2022-07-24T10:21:56;101977.27;;;14.89;33.40
73205;BME280;61413;-27.702;153.216;2022-07-24T10:24:53;101971.98;;;14.93;33.49
73205;BME280;61413;-27.702;153.216;2022-07-24T10:26:40;101976.77;;;14.81;33.67
73205;BME280;61413;-27.702;153.216;2022-07-24T10:29:08;101982.70;;;15.03;33.74
73205;BME280;61413;-27.702;153.216;2022-07-24T10:31:37;101982.05;;;14.86;33.75
73205;BME280;61413;-27.702;153.216;2022-07-24T10:34:06;101985.92;;;14.77;33.93
73205;BME280;61413;-27.702;153.216;2022-07-24T10:36:36;101990.52;;;14.61;33.88
73205;BME280;61413;-27.702;153.216;2022-07-24T10:38:59;101997.46;;;14.87;33.98
73205;BME280;61413;-27.702;153.216;2022-07-24T10:41:25;102001.10;;;14.74;34.03
73205;BME280;61413;-27.702;153.216;2022-07-24T10:44:13;102001.51;;;14.62;34.13
73205;BME280;61413;-27.702;153.216;2022-07-24T10:46:13;102002.06;;;14.60;34.28
73205;BME280;61413;-27.702;153.216;2022-07-24T10:48:40;102001.66;;;14.66;34.35
73205;BME280;61413;-27.702;153.216;2022-07-24T10:51:14;102000.84;;;14.57;34.45
73205;BME280;61413;-27.702;153.216;2022-07-24T10:53:46;102001.31;;;14.33;34.52
73205;BME280;61413;-27.702;153.216;2022-07-24T10:56:16;102000.57;;;14.12;34.68
73205;BME280;61413;-27.702;153.216;2022-07-24T10:58:27;102003.79;;;14.37;34.77
73205;BME280;61413;-27.702;153.216;2022-07-24T11:00:53;102004.09;;;14.20;34.89
73205;BME280;61413;-27.702;153.216;2022-07-24T11:03:22;102003.80;;;14.43;34.89
73205;BME280;61413;-27.702;153.216;2022-07-24T11:06:04;102004.19;;;14.40;34.89
73205;BME280;61413;-27.702;153.216;2022-07-24T11:10:56;102006.90;;;14.09;35.10
73205;BME280;61413;-27.702;153.216;2022-07-24T11:13:53;102004.97;;;14.39;35.08
73205;BME280;61413;-27.702;153.216;2022-07-24T11:16:19;102005.20;;;14.22;35.14
73205;BME280;61413;-27.702;153.216;2022-07-24T11:18:16;102009.40;;;13.84;35.23
73205;BME280;61413;-27.702;153.216;2022-07-24T11:20:39;102009.44;;;14.09;35.28
73205;BME280;61413;-27.702;153.216;2022-07-24T11:23:22;102011.26;;;13.85;35.29
73205;BME280;61413;-27.702;153.216;2022-07-24T11:25:33;102015.95;;;13.74;35.36
73205;BME280;61413;-27.702;153.216;2022-07-24T11:28:13;102017.46;;;14.31;35.50
73205;BME280;61413;-27.702;153.216;2022-07-24T11:30:29;102016.58;;;13.91;35.53
73205;BME280;61413;-27.702;153.216;2022-07-24T11:32:53;102015.32;;;13.89;35.58
73205;BME280;61413;-27.702;153.216;2022-07-24T11:35:28;102012.70;;;13.93;35.63
73205;BME280;61413;-27.702;153.216;2022-07-24T11:39:15;102006.92;;;13.77;35.86
73205;BME280;61413;-27.702;153.216;2022-07-24T11:41:50;102002.37;;;13.64;35.89
73205;BME280;61413;-27.702;153.216;2022-07-24T11:44:10;101998.21;;;13.71;35.89
73205;BME280;61413;-27.702;153.216;2022-07-24T11:46:41;101996.62;;;13.71;35.93
73205;BME280;61413;-27.702;153.216;2022-07-24T11:49:05;101999.24;;;13.77;35.91
73205;BME280;61413;-27.702;153.216;2022-07-24T11:51:32;102001.28;;;13.45;35.73
73205;BME280;61413;-27.702;153.216;2022-07-24T11:53:59;102001.70;;;13.45;35.92
73205;BME280;61413;-27.702;153.216;2022-07-24T11:56:28;102001.36;;;13.52;35.92
73205;BME280;61413;-27.702;153.216;2022-07-24T11:58:51;102001.75;;;13.28;35.99
73205;BME280;61413;-27.702;153.216;2022-07-24T12:01:22;101999.14;;;13.60;35.87
73205;BME280;61413;-27.702;153.216;2022-07-24T12:03:51;101997.32;;;13.40;35.87
73205;BME280;61413;-27.702;153.216;2022-07-24T12:06:14;102002.25;;;13.47;35.99
73205;BME280;61413;-27.702;153.216;2022-07-24T12:08:42;102003.37;;;13.47;36.08
73205;BME280;61413;-27.702;153.216;2022-07-24T12:11:08;102003.87;;;13.12;36.13
73205;BME280;61413;-27.702;153.216;2022-07-24T12:13:35;102005.27;;;13.16;36.13
73205;BME280;61413;-27.702;153.216;2022-07-24T12:16:02;102003.90;;;12.72;36.27
73205;BME280;61413;-27.702;153.216;2022-07-24T12:18:29;102005.00;;;12.68;36.44
73205;BME280;61413;-27.702;153.216;2022-07-24T12:21:01;102006.65;;;12.82;36.52
73205;BME280;61413;-27.702;153.216;2022-07-24T12:23:24;102011.80;;;12.55;36.84
73205;BME280;61413;-27.702;153.216;2022-07-24T12:25:51;102014.08;;;12.96;37.04
73205;BME280;61413;-27.702;153.216;2022-07-24T12:28:19;102017.21;;;12.70;37.17
73205;BME280;61413;-27.702;153.216;2022-07-24T12:30:47;102019.61;;;12.46;37.32
73205;BME280;61413;-27.702;153.216;2022-07-24T12:33:22;102021.49;;;12.69;37.30
73205;BME280;61413;-27.702;153.216;2022-07-24T12:35:55;102021.24;;;12.74;37.28
73205;BME280;61413;-27.702;153.216;2022-07-24T12:38:06;102022.38;;;12.90;37.10
73205;BME280;61413;-27.702;153.216;2022-07-24T12:40:34;102025.11;;;12.96;37.08
73205;BME280;61413;-27.702;153.216;2022-07-24T12:43:06;102020.78;;;12.81;37.05
73205;BME280;61413;-27.702;153.216;2022-07-24T12:45:29;102027.57;;;12.76;36.87
73205;BME280;61413;-27.702;153.216;2022-07-24T12:48:19;102029.29;;;12.70;36.81
73205;BME280;61413;-27.702;153.216;2022-07-24T12:50:22;102030.44;;;12.74;36.77
73205;BME280;61413;-27.702;153.216;2022-07-24T12:53:01;102032.21;;;12.09;36.83
73205;BME280;61413;-27.702;153.216;2022-07-24T12:55:21;102034.17;;;12.40;36.71
73205;BME280;61413;-27.702;153.216;2022-07-24T12:57:43;102032.60;;;12.50;36.75